sensor_id;sensor_type;location;lat;lon;timestamp;pressure;altitude;pressure_sealevel;temperature;humidity
79431;BME280;68883;45.932;6.060;2023-04-27T00:00:06;95563.44;;;10.27;44.41
79431;BME280;68883;45.932;6.060;2023-04-27T00:02:35;95561.03;;;10.24;44.64
79431;BME280;68883;45.932;6.060;2023-04-27T00:05:03;95561.09;;;10.22;44.66
79431;BME280;68883;45.932;6.060;2023-04-27T00:07:29;95563.22;;;10.15;44.53
79431;BME280;68883;45.932;6.060;2023-04-27T00:09:55;95555.84;;;10.09;44.91
79431;BME280;68883;45.932;6.060;2023-04-27T00:12:21;95564.47;;;10.08;45.08
79431;BME280;68883;45.932;6.060;2023-04-27T00:14:47;95568.88;;;10.06;45.32
79431;BME280;68883;45.932;6.060;2023-04-27T00:17:13;95561.41;;;10.01;45.59
79431;BME280;68883;45.932;6.060;2023-04-27T00:19:39;95553.75;;;10.00;45.40
79431;BME280;68883;45.932;6.060;2023-04-27T00:22:06;95556.44;;;9.98;45.54
79431;BME280;68883;45.932;6.060;2023-04-27T00:24:32;95553.84;;;9.98;45.59
79431;BME280;68883;45.932;6.060;2023-04-27T00:26:58;95551.28;;;9.98;45.51
79431;BME280;68883;45.932;6.060;2023-04-27T00:29:24;95551.28;;;9.98;45.47
79431;BME280;68883;45.932;6.060;2023-04-27T00:31:49;95552.28;;;9.96;45.36
79431;BME280;68883;45.932;6.060;2023-04-27T00:34:15;95543.19;;;9.88;45.17
79431;BME280;68883;45.932;6.060;2023-04-27T00:36:40;95544.97;;;9.88;45.05
79431;BME280;68883;45.932;6.060;2023-04-27T00:39:06;95545.72;;;9.90;45.07
79431;BME280;68883;45.932;6.060;2023-04-27T00:41:36;95544.88;;;9.89;45.29
79431;BME280;68883;45.932;6.060;2023-04-27T00:44:01;95553.47;;;9.90;45.33
79431;BME280;68883;45.932;6.060;2023-04-27T00:46:28;95540.69;;;9.87;45.24
79431;BME280;68883;45.932;6.060;2023-04-27T00:48:54;95541.56;;;9.87;45.28
79431;BME280;68883;45.932;6.060;2023-04-27T00:51:21;95539.03;;;9.86;45.34
79431;BME280;68883;45.932;6.060;2023-04-27T00:53:49;95539.69;;;9.89;45.38
79431;BME280;68883;45.932;6.060;2023-04-27T00:56:16;95540.63;;;9.88;45.55
79431;BME280;68883;45.932;6.060;2023-04-27T00:58:42;95543.28;;;9.87;45.76
79431;BME280;68883;45.932;6.060;2023-04-27T01:01:08;95541.63;;;9.86;45.81
79431;BME280;68883;45.932;6.060;2023-04-27T01:03:35;95541.78;;;9.83;45.66
79431;BME280;68883;45.932;6.060;2023-04-27T01:06:01;95540.97;;;9.82;45.76
79431;BME280;68883;45.932;6.060;2023-04-27T01:08:29;95536.91;;;9.78;45.81
79431;BME280;68883;45.932;6.060;2023-04-27T01:10:55;95535.81;;;9.82;45.80
79431;BME280;68883;45.932;6.060;2023-04-27T01:13:21;95536.91;;;9.78;46.22
79431;BME280;68883;45.932;6.060;2023-04-27T01:15:47;95540.41;;;9.77;46.15
79431;BME280;68883;45.932;6.060;2023-04-27T01:18:13;95534.66;;;9.72;46.31
79431;BME280;68883;45.932;6.060;2023-04-27T01:20:39;95542.66;;;9.67;46.42
79431;BME280;68883;45.932;6.060;2023-04-27T01:23:04;95542.81;;;9.64;46.40
79431;BME280;68883;45.932;6.060;2023-04-27T01:25:30;95544.56;;;9.64;46.43
79431;BME280;68883;45.932;6.060;2023-04-27T01:27:56;95530.09;;;9.61;46.55
79431;BME280;68883;45.932;6.060;2023-04-27T01:30:22;95532.00;;;9.58;46.41
79431;BME280;68883;45.932;6.060;2023-04-27T01:32:48;95538.81;;;9.59;46.71
79431;BME280;68883;45.932;6.060;2023-04-27T01:35:17;95545.97;;;9.53;46.71
79431;BME280;68883;45.932;6.060;2023-04-27T01:37:43;95537.00;;;9.45;46.80
79431;BME280;68883;45.932;6.060;2023-04-27T01:40:09;95529.34;;;9.43;46.71
79431;BME280;68883;45.932;6.060;2023-04-27T01:42:35;95538.56;;;9.47;46.83
79431;BME280;68883;45.932;6.060;2023-04-27T01:45:00;95545.47;;;9.47;47.04
79431;BME280;68883;45.932;6.060;2023-04-27T01:47:26;95541.31;;;9.44;47.15
79431;BME280;68883;45.932;6.060;2023-04-27T01:49:52;95543.22;;;9.41;47.23
79431;BME280;68883;45.932;6.060;2023-04-27T01:52:18;95557.06;;;9.40;47.40
79431;BME280;68883;45.932;6.060;2023-04-27T01:54:43;95543.47;;;9.36;47.47
79431;BME280;68883;45.932;6.060;2023-04-27T01:57:09;95530.19;;;9.28;47.60
79431;BME280;68883;45.932;6.060;2023-04-27T01:59:35;95523.44;;;9.25;47.69
79431;BME280;68883;45.932;6.060;2023-04-27T02:02:00;95537.56;;;9.34;47.95
79431;BME280;68883;45.932;6.060;2023-04-27T02:04:28;95526.69;;;9.29;48.30
79431;BME280;68883;45.932;6.060;2023-04-27T02:06:54;95529.00;;;9.33;48.20
79431;BME280;68883;45.932;6.060;2023-04-27T02:09:19;95528.34;;;9.30;48.32
79431;BME280;68883;45.932;6.060;2023-04-27T02:11:45;95525.09;;;9.26;48.34
79431;BME280;68883;45.932;6.060;2023-04-27T02:14:11;95539.00;;;9.24;48.51
79431;BME280;68883;45.932;6.060;2023-04-27T02:16:37;95546.13;;;9.18;48.60
79431;BME280;68883;45.932;6.060;2023-04-27T02:19:02;95537.00;;;9.13;48.76
79431;BME280;68883;45.932;6.060;2023-04-27T02:21:28;95545.84;;;9.07;48.88
79431;BME280;68883;45.932;6.060;2023-04-27T02:23:55;95539.13;;;9.04;49.00
79431;BME280;68883;45.932;6.060;2023-04-27T02:26:21;95547.78;;;9.03;49.14
79431;BME280;68883;45.932;6.060;2023-04-27T02:28:54;95538.59;;;8.98;49.06
79431;BME280;68883;45.932;6.060;2023-04-27T02:31:20;95548.44;;;9.07;49.19
79431;BME280;68883;45.932;6.060;2023-04-27T02:33:46;95557.59;;;9.13;49.05
79431;BME280;68883;45.932;6.060;2023-04-27T02:36:12;95551.47;;;9.15;49.02
79431;BME280;68883;45.932;6.060;2023-04-27T02:38:38;95545.22;;;9.19;48.97
79431;BME280;68883;45.932;6.060;2023-04-27T02:41:03;95544.78;;;9.27;49.03
79431;BME280;68883;45.932;6.060;2023-04-27T02:43:29;95531.75;;;9.30;48.87
79431;BME280;68883;45.932;6.060;2023-04-27T02:45:55;95547.16;;;9.48;48.92
79431;BME280;68883;45.932;6.060;2023-04-27T02:48:20;95538.41;;;9.50;48.94
79431;BME280;68883;45.932;6.060;2023-04-27T02:50:46;95549.72;;;9.64;48.86
79431;BME280;68883;45.932;6.060;2023-04-27T02:53:12;95548.63;;;9.68;48.91
79431;BME280;68883;45.932;6.060;2023-04-27T02:55:38;95544.78;;;9.75;48.89
79431;BME280;68883;45.932;6.060;2023-04-27T02:58:09;95537.72;;;9.79;48.91
79431;BME280;68883;45.932;6.060;2023-04-27T03:00:35;95545.13;;;9.85;48.72
79431;BME280;68883;45.932;6.060;2023-04-27T03:03:01;95545.03;;;9.86;48.66
79431;BME280;68883;45.932;6.060;2023-04-27T03:05:28;95554.19;;;9.92;48.66
79431;BME280;68883;45.932;6.060;2023-04-27T03:07:56;95552.38;;;9.94;48.65
79431;BME280;68883;45.932;6.060;2023-04-27T03:10:21;95550.50;;;9.96;48.57
79431;BME280;68883;45.932;6.060;2023-04-27T03:12:47;95554.00;;;9.95;48.43
79431;BME280;68883;45.932;6.060;2023-04-27T03:15:13;95559.16;;;9.95;48.23
79431;BME280;68883;45.932;6.060;2023-04-27T03:17:38;95556.69;;;9.94;48.39
79431;BME280;68883;45.932;6.060;2023-04-27T03:20:05;95557.69;;;9.91;48.38
79431;BME280;68883;45.932;6.060;2023-04-27T03:22:34;95547.53;;;9.88;48.32
79431;BME280;68883;45.932;6.060;2023-04-27T03:25:01;95556.94;;;9.89;48.32
79431;BME280;68883;45.932;6.060;2023-04-27T03:27:28;95554.50;;;9.86;48.27
79431;BME280;68883;45.932;6.060;2023-04-27T03:29:54;95556.47;;;9.82;48.51
79431;BME280;68883;45.932;6.060;2023-04-27T03:32:20;95543.06;;;9.76;48.65
79431;BME280;68883;45.932;6.060;2023-04-27T03:34:45;95549.63;;;9.81;48.75
79431;BME280;68883;45.932;6.060;2023-04-27T03:37:11;95538.72;;;9.76;48.76
79431;BME280;68883;45.932;6.060;2023-04-27T03:39:37;95543.16;;;9.74;48.80
79431;BME280;68883;45.932;6.060;2023-04-27T03:42:03;95555.28;;;9.72;48.88
79431;BME280;68883;45.932;6.060;2023-04-27T03:44:29;95538.81;;;9.59;48.96
79431;BME280;68883;45.932;6.060;2023-04-27T03:46:58;95557.06;;;9.55;49.29
79431;BME280;68883;45.932;6.060;2023-04-27T03:49:25;95561.94;;;9.44;49.51
79431;BME280;68883;45.932;6.060;2023-04-27T03:51:51;95542.38;;;9.24;49.74
79431;BME280;68883;45.932;6.060;2023-04-27T03:54:16;95558.13;;;9.19;50.17
79431;BME280;68883;45.932;6.060;2023-04-27T03:56:42;95556.94;;;9.09;50.34
79431;BME280;68883;45.932;6.060;2023-04-27T03:59:09;95547.28;;;8.97;50.41
79431;BME280;68883;45.932;6.060;2023-04-27T04:01:36;95551.56;;;8.96;50.74
79431;BME280;68883;45.932;6.060;2023-04-27T04:04:04;95548.41;;;8.91;50.81
79431;BME280;68883;45.932;6.060;2023-04-27T04:06:30;95553.63;;;8.90;51.18
79431;BME280;68883;45.932;6.060;2023-04-27T04:08:56;95552.91;;;8.87;51.35
79431;BME280;68883;45.932;6.060;2023-04-27T04:11:22;95546.97;;;8.85;51.43
79431;BME280;68883;45.932;6.060;2023-04-27T04:13:49;95546.47;;;8.79;51.40
79431;BME280;68883;45.932;6.060;2023-04-27T04:16:15;95550.53;;;8.83;51.68
79431;BME280;68883;45.932;6.060;2023-04-27T04:18:41;95545.47;;;8.81;51.70
79431;BME280;68883;45.932;6.060;2023-04-27T04:21:08;95548.13;;;8.80;51.77
79431;BME280;68883;45.932;6.060;2023-04-27T04:23:36;95547.31;;;8.79;51.75
79431;BME280;68883;45.932;6.060;2023-04-27T04:26:02;95548.13;;;8.80;51.92
79431;BME280;68883;45.932;6.060;2023-04-27T04:28:32;95545.78;;;8.75;52.23
79431;BME280;68883;45.932;6.060;2023-04-27T04:30:59;95526.78;;;8.60;52.15
79431;BME280;68883;45.932;6.060;2023-04-27T04:33:25;95559.22;;;8.82;52.27
79431;BME280;68883;45.932;6.060;2023-04-27T04:35:51;95557.53;;;8.81;52.28
79431;BME280;68883;45.932;6.060;2023-04-27T04:38:18;95555.03;;;8.79;52.34
79431;BME280;68883;45.932;6.060;2023-04-27T04:40:44;95549.28;;;8.74;52.43
79431;BME280;68883;45.932;6.060;2023-04-27T04:43:10;95560.25;;;8.78;52.33
79431;BME280;68883;45.932;6.060;2023-04-27T04:45:36;95556.47;;;8.85;52.38
79431;BME280;68883;45.932;6.060;2023-04-27T04:48:02;95560.47;;;8.91;52.09
79431;BME280;68883;45.932;6.060;2023-04-27T04:50:28;95560.25;;;8.95;52.19
79431;BME280;68883;45.932;6.060;2023-04-27T04:52:54;95565.38;;;8.95;52.12
79431;BME280;68883;45.932;6.060;2023-04-27T04:55:20;95554.06;;;8.98;52.09
79431;BME280;68883;45.932;6.060;2023-04-27T04:57:46;95563.31;;;9.02;52.27
79431;BME280;68883;45.932;6.060;2023-04-27T05:00:13;95555.59;;;9.02;52.26
79431;BME280;68883;45.932;6.060;2023-04-27T05:02:39;95555.94;;;9.12;52.19
79431;BME280;68883;45.932;6.060;2023-04-27T05:05:05;95554.78;;;9.17;52.24
79431;BME280;68883;45.932;6.060;2023-04-27T05:07:32;95564.44;;;9.30;52.22
79431;BME280;68883;45.932;6.060;2023-04-27T05:09:58;95560.22;;;9.45;52.19
79431;BME280;68883;45.932;6.060;2023-04-27T05:12:23;95562.84;;;9.59;52.15
79431;BME280;68883;45.932;6.060;2023-04-27T05:14:52;95554.38;;;9.73;52.27
79431;BME280;68883;45.932;6.060;2023-04-27T05:17:18;95556.94;;;9.89;52.20
79431;BME280;68883;45.932;6.060;2023-04-27T05:19:44;95560.81;;;10.12;52.26
79431;BME280;68883;45.932;6.060;2023-04-27T05:22:09;95564.34;;;10.42;52.51
79431;BME280;68883;45.932;6.060;2023-04-27T05:24:35;95560.16;;;10.69;52.42
79431;BME280;68883;45.932;6.060;2023-04-27T05:27:01;95561.22;;;10.96;51.84
79431;BME280;68883;45.932;6.060;2023-04-27T05:29:28;95572.38;;;11.25;51.26
79431;BME280;68883;45.932;6.060;2023-04-27T05:31:53;95561.72;;;12.00;50.22
79431;BME280;68883;45.932;6.060;2023-04-27T05:34:19;95556.78;;;13.02;48.83
79431;BME280;68883;45.932;6.060;2023-04-27T05:36:45;95560.69;;;13.83;46.60
79431;BME280;68883;45.932;6.060;2023-04-27T05:39:12;95555.19;;;14.48;45.56
79431;BME280;68883;45.932;6.060;2023-04-27T05:41:38;95557.22;;;15.02;43.77
79431;BME280;68883;45.932;6.060;2023-04-27T05:44:03;95550.94;;;15.39;43.30
79431;BME280;68883;45.932;6.060;2023-04-27T05:46:29;95549.84;;;15.76;42.63
79431;BME280;68883;45.932;6.060;2023-04-27T05:48:55;95549.84;;;15.76;42.13
79431;BME280;68883;45.932;6.060;2023-04-27T05:51:21;95553.44;;;15.29;42.86
79431;BME280;68883;45.932;6.060;2023-04-27T05:53:47;95546.09;;;14.89;43.88
79431;BME280;68883;45.932;6.060;2023-04-27T05:56:12;95550.72;;;15.08;44.93
79431;BME280;68883;45.932;6.060;2023-04-27T05:58:38;95547.94;;;15.89;44.28
79431;BME280;68883;45.932;6.060;2023-04-27T06:01:04;95543.75;;;17.05;42.38
79431;BME280;68883;45.932;6.060;2023-04-27T06:03:30;95546.13;;;17.99;40.83
79431;BME280;68883;45.932;6.060;2023-04-27T06:05:57;95545.13;;;18.98;39.22
79431;BME280;68883;45.932;6.060;2023-04-27T06:08:24;95544.75;;;19.86;37.82
79431;BME280;68883;45.932;6.060;2023-04-27T06:10:50;95554.53;;;20.48;36.52
79431;BME280;68883;45.932;6.060;2023-04-27T06:13:16;95556.47;;;20.82;35.77
79431;BME280;68883;45.932;6.060;2023-04-27T06:15:42;95555.72;;;21.51;35.13
79431;BME280;68883;45.932;6.060;2023-04-27T06:18:08;95558.78;;;22.32;34.01
79431;BME280;68883;45.932;6.060;2023-04-27T06:20:34;95558.63;;;22.99;32.94
79431;BME280;68883;45.932;6.060;2023-04-27T06:23:01;95561.78;;;23.67;31.41
79431;BME280;68883;45.932;6.060;2023-04-27T06:25:26;95560.28;;;24.13;30.94
79431;BME280;68883;45.932;6.060;2023-04-27T06:27:54;95552.16;;;24.69;29.96
79431;BME280;68883;45.932;6.060;2023-04-27T06:30:20;95560.81;;;25.16;29.30
79431;BME280;68883;45.932;6.060;2023-04-27T06:32:45;95553.84;;;25.38;28.71
79431;BME280;68883;45.932;6.060;2023-04-27T06:35:11;95564.31;;;25.76;27.25
79431;BME280;68883;45.932;6.060;2023-04-27T06:37:37;95560.75;;;26.14;27.02
79431;BME280;68883;45.932;6.060;2023-04-27T06:40:03;95559.44;;;26.46;26.24
79431;BME280;68883;45.932;6.060;2023-04-27T06:42:28;95556.72;;;26.83;25.70
79431;BME280;68883;45.932;6.060;2023-04-27T06:44:54;95553.16;;;27.26;25.92
79431;BME280;68883;45.932;6.060;2023-04-27T06:47:21;95555.03;;;27.32;24.74
79431;BME280;68883;45.932;6.060;2023-04-27T06:49:47;95560.66;;;27.15;24.55
79431;BME280;68883;45.932;6.060;2023-04-27T06:52:13;95558.41;;;26.90;23.98
79431;BME280;68883;45.932;6.060;2023-04-27T06:54:38;95558.19;;;26.42;24.45
79431;BME280;68883;45.932;6.060;2023-04-27T06:57:04;95551.16;;;26.13;24.90
79431;BME280;68883;45.932;6.060;2023-04-27T06:59:31;95548.88;;;25.95;25.27
79431;BME280;68883;45.932;6.060;2023-04-27T07:01:56;95546.69;;;25.98;25.44
79431;BME280;68883;45.932;6.060;2023-04-27T07:04:22;95555.47;;;25.84;25.18
79431;BME280;68883;45.932;6.060;2023-04-27T07:06:48;95556.22;;;25.48;25.33
79431;BME280;68883;45.932;6.060;2023-04-27T07:09:14;95548.34;;;25.24;25.00
79431;BME280;68883;45.932;6.060;2023-04-27T07:11:39;95545.22;;;24.91;25.10
79431;BME280;68883;45.932;6.060;2023-04-27T07:14:05;95555.09;;;24.74;26.01
79431;BME280;68883;45.932;6.060;2023-04-27T07:16:31;95555.84;;;24.83;26.01
79431;BME280;68883;45.932;6.060;2023-04-27T07:18:56;95556.91;;;25.12;25.70
79431;BME280;68883;45.932;6.060;2023-04-27T07:21:22;95549.03;;;25.42;25.57
79431;BME280;68883;45.932;6.060;2023-04-27T07:23:48;95545.41;;;25.94;25.06
79431;BME280;68883;45.932;6.060;2023-04-27T07:26:13;95535.47;;;26.76;24.68
79431;BME280;68883;45.932;6.060;2023-04-27T07:28:39;95535.53;;;27.39;23.70
79431;BME280;68883;45.932;6.060;2023-04-27T07:31:05;95544.22;;;28.03;23.07
79431;BME280;68883;45.932;6.060;2023-04-27T07:33:32;95541.78;;;28.15;22.74
79431;BME280;68883;45.932;6.060;2023-04-27T07:35:58;95542.88;;;28.34;22.67
79431;BME280;68883;45.932;6.060;2023-04-27T07:38:23;95544.31;;;28.37;22.83
79431;BME280;68883;45.932;6.060;2023-04-27T07:40:50;95535.31;;;28.51;22.62
79431;BME280;68883;45.932;6.060;2023-04-27T07:43:16;95534.13;;;28.81;22.27
79431;BME280;68883;45.932;6.060;2023-04-27T07:45:42;95532.91;;;28.77;22.55
79431;BME280;68883;45.932;6.060;2023-04-27T07:48:08;95530.44;;;29.29;22.07
79431;BME280;68883;45.932;6.060;2023-04-27T07:50:34;95525.31;;;29.99;21.42
79431;BME280;68883;45.932;6.060;2023-04-27T07:53:00;95538.47;;;30.33;20.22
79431;BME280;68883;45.932;6.060;2023-04-27T07:55:26;95530.34;;;30.53;20.96
79431;BME280;68883;45.932;6.060;2023-04-27T07:57:52;95523.41;;;31.02;20.17
79431;BME280;68883;45.932;6.060;2023-04-27T08:00:19;95517.13;;;31.59;19.33
79431;BME280;68883;45.932;6.060;2023-04-27T08:02:44;95516.44;;;32.01;19.10
79431;BME280;68883;45.932;6.060;2023-04-27T08:05:10;95512.72;;;32.20;18.98
79431;BME280;68883;45.932;6.060;2023-04-27T08:07:36;95514.69;;;32.67;18.47
79431;BME280;68883;45.932;6.060;2023-04-27T08:10:02;95492.88;;;33.30;17.93
79431;BME280;68883;45.932;6.060;2023-04-27T08:12:27;95506.72;;;33.91;17.52
79431;BME280;68883;45.932;6.060;2023-04-27T08:14:53;95506.09;;;34.30;17.20
79431;BME280;68883;45.932;6.060;2023-04-27T08:17:19;95505.94;;;34.65;16.47
79431;BME280;68883;45.932;6.060;2023-04-27T08:19:46;95500.47;;;35.28;16.02
79431;BME280;68883;45.932;6.060;2023-04-27T08:22:12;95506.59;;;35.85;15.62
79431;BME280;68883;45.932;6.060;2023-04-27T08:24:37;95490.91;;;36.26;15.39
79431;BME280;68883;45.932;6.060;2023-04-27T08:27:05;95494.78;;;36.68;14.98
79431;BME280;68883;45.932;6.060;2023-04-27T08:29:31;95495.78;;;36.89;14.59
79431;BME280;68883;45.932;6.060;2023-04-27T08:31:58;95497.69;;;36.61;14.51
79431;BME280;68883;45.932;6.060;2023-04-27T08:34:25;95501.06;;;36.19;15.06
79431;BME280;68883;45.932;6.060;2023-04-27T08:36:51;95491.81;;;36.64;14.55
79431;BME280;68883;45.932;6.060;2023-04-27T08:39:16;95500.75;;;37.50;14.47
79431;BME280;68883;45.932;6.060;2023-04-27T08:41:42;95488.34;;;38.13;13.88
79431;BME280;68883;45.932;6.060;2023-04-27T08:44:09;95494.09;;;38.68;13.65
79431;BME280;68883;45.932;6.060;2023-04-27T08:46:36;95484.41;;;38.77;13.52
79431;BME280;68883;45.932;6.060;2023-04-27T08:49:02;95488.94;;;39.08;13.66
79431;BME280;68883;45.932;6.060;2023-04-27T08:51:28;95481.81;;;39.63;13.11
79431;BME280;68883;45.932;6.060;2023-04-27T08:53:55;95478.69;;;39.96;12.78
79431;BME280;68883;45.932;6.060;2023-04-27T08:56:23;95479.91;;;39.69;12.81
79431;BME280;68883;45.932;6.060;2023-04-27T08:58:50;95491.59;;;39.44;12.95
79431;BME280;68883;45.932;6.060;2023-04-27T09:01:16;95478.38;;;39.37;12.96
79431;BME280;68883;45.932;6.060;2023-04-27T09:03:42;95472.09;;;39.52;12.52
79431;BME280;68883;45.932;6.060;2023-04-27T09:06:11;95471.94;;;39.93;12.88
79431;BME280;68883;45.932;6.060;2023-04-27T09:08:45;95473.59;;;40.34;12.07
79431;BME280;68883;45.932;6.060;2023-04-27T09:11:15;95474.63;;;39.98;12.49
79431;BME280;68883;45.932;6.060;2023-04-27T09:13:52;95471.41;;;39.91;12.71
79431;BME280;68883;45.932;6.060;2023-04-27T09:16:22;95472.00;;;39.78;12.55
79431;BME280;68883;45.932;6.060;2023-04-27T09:18:48;95473.13;;;40.66;12.89
79431;BME280;68883;45.932;6.060;2023-04-27T09:21:24;95473.75;;;42.09;12.16
79431;BME280;68883;45.932;6.060;2023-04-27T09:23:50;95468.25;;;42.85;11.38
79431;BME280;68883;45.932;6.060;2023-04-27T09:26:21;95468.56;;;43.44;11.19
79431;BME280;68883;45.932;6.060;2023-04-27T09:28:49;95463.41;;;43.98;10.73
79431;BME280;68883;45.932;6.060;2023-04-27T09:31:15;95462.72;;;43.65;10.64
79431;BME280;68883;45.932;6.060;2023-04-27T09:33:43;95474.25;;;41.48;11.72
79431;BME280;68883;45.932;6.060;2023-04-27T09:36:10;95466.78;;;39.26;12.65
79431;BME280;68883;45.932;6.060;2023-04-27T09:38:36;95474.44;;;37.20;13.46
79431;BME280;68883;45.932;6.060;2023-04-27T09:41:02;95465.84;;;35.93;14.61
79431;BME280;68883;45.932;6.060;2023-04-27T09:43:28;95473.66;;;35.73;15.51
79431;BME280;68883;45.932;6.060;2023-04-27T09:45:56;95473.28;;;35.86;15.42
79431;BME280;68883;45.932;6.060;2023-04-27T09:48:24;95480.72;;;36.28;14.98
79431;BME280;68883;45.932;6.060;2023-04-27T09:50:51;95473.47;;;36.61;15.22
79431;BME280;68883;45.932;6.060;2023-04-27T09:53:48;95475.91;;;37.91;14.77
79431;BME280;68883;45.932;6.060;2023-04-27T09:59:24;95458.06;;;40.50;13.08
79431;BME280;68883;45.932;6.060;2023-04-27T10:01:57;95456.50;;;41.08;12.70
79431;BME280;68883;45.932;6.060;2023-04-27T10:07:15;95455.19;;;41.97;11.86
79431;BME280;68883;45.932;6.060;2023-04-27T10:09:44;95451.03;;;42.24;11.42
79431;BME280;68883;45.932;6.060;2023-04-27T10:12:27;95453.88;;;41.94;11.39
79431;BME280;68883;45.932;6.060;2023-04-27T10:14:58;95451.13;;;40.73;11.82
79431;BME280;68883;45.932;6.060;2023-04-27T10:17:31;95450.88;;;39.25;12.51
79431;BME280;68883;45.932;6.060;2023-04-27T10:19:59;95449.22;;;38.05;13.30
79431;BME280;68883;45.932;6.060;2023-04-27T10:22:46;95447.88;;;38.13;13.88
79431;BME280;68883;45.932;6.060;2023-04-27T10:25:18;95443.28;;;39.27;13.04
79431;BME280;68883;45.932;6.060;2023-04-27T10:27:52;95446.44;;;40.10;12.12
79431;BME280;68883;45.932;6.060;2023-04-27T10:30:20;95454.66;;;39.89;11.56
79431;BME280;68883;45.932;6.060;2023-04-27T10:32:53;95449.28;;;38.72;11.99
79431;BME280;68883;45.932;6.060;2023-04-27T10:35:20;95460.16;;;37.73;13.03
79431;BME280;68883;45.932;6.060;2023-04-27T10:37:46;95446.97;;;37.18;12.67
79431;BME280;68883;45.932;6.060;2023-04-27T10:40:14;95456.16;;;36.47;12.97
79431;BME280;68883;45.932;6.060;2023-04-27T10:42:43;95458.91;;;34.92;13.73
79431;BME280;68883;45.932;6.060;2023-04-27T10:45:10;95458.53;;;33.38;15.72
79431;BME280;68883;45.932;6.060;2023-04-27T10:47:39;95462.22;;;32.54;16.18
79431;BME280;68883;45.932;6.060;2023-04-27T10:50:07;95463.06;;;31.45;17.28
79431;BME280;68883;45.932;6.060;2023-04-27T10:52:42;95454.22;;;31.08;17.55
79431;BME280;68883;45.932;6.060;2023-04-27T10:55:18;95451.88;;;30.49;17.59
79431;BME280;68883;45.932;6.060;2023-04-27T10:57:54;95445.09;;;29.76;18.27
79431;BME280;68883;45.932;6.060;2023-04-27T11:00:41;95448.88;;;28.89;18.65
79431;BME280;68883;45.932;6.060;2023-04-27T11:03:16;95452.75;;;28.39;19.57
79431;BME280;68883;45.932;6.060;2023-04-27T11:05:45;95453.75;;;28.05;19.68
79431;BME280;68883;45.932;6.060;2023-04-27T11:08:13;95459.13;;;27.70;19.63
79431;BME280;68883;45.932;6.060;2023-04-27T11:10:47;95458.84;;;27.45;19.98
79431;BME280;68883;45.932;6.060;2023-04-27T11:13:17;95458.72;;;27.25;20.45
79431;BME280;68883;45.932;6.060;2023-04-27T11:18:22;95451.28;;;27.06;20.89
79431;BME280;68883;45.932;6.060;2023-04-27T11:20:49;95447.38;;;27.02;21.20
79431;BME280;68883;45.932;6.060;2023-04-27T11:23:29;95448.00;;;26.76;20.87
79431;BME280;68883;45.932;6.060;2023-04-27T11:26:21;95461.03;;;26.49;21.30
79431;BME280;68883;45.932;6.060;2023-04-27T11:28:59;95450.50;;;26.56;21.59
79431;BME280;68883;45.932;6.060;2023-04-27T11:31:26;95457.16;;;26.73;21.25
79431;BME280;68883;45.932;6.060;2023-04-27T11:33:53;95458.19;;;26.51;21.58
79431;BME280;68883;45.932;6.060;2023-04-27T11:36:20;95454.38;;;26.32;21.75
79431;BME280;68883;45.932;6.060;2023-04-27T11:38:46;95459.53;;;26.68;22.04
79431;BME280;68883;45.932;6.060;2023-04-27T11:41:12;95462.88;;;27.05;21.51
79431;BME280;68883;45.932;6.060;2023-04-27T11:43:42;95446.59;;;27.09;21.59
79431;BME280;68883;45.932;6.060;2023-04-27T11:46:10;95450.34;;;27.21;22.29
79431;BME280;68883;45.932;6.060;2023-04-27T11:48:36;95455.88;;;27.26;21.61
79431;BME280;68883;45.932;6.060;2023-04-27T11:51:03;95445.28;;;26.98;20.88
79431;BME280;68883;45.932;6.060;2023-04-27T11:53:33;95447.50;;;26.87;21.15
79431;BME280;68883;45.932;6.060;2023-04-27T11:56:00;95446.38;;;27.03;21.48
79431;BME280;68883;45.932;6.060;2023-04-27T11:58:27;95448.81;;;27.05;21.74
79431;BME280;68883;45.932;6.060;2023-04-27T12:00:57;95449.78;;;26.97;21.41
79431;BME280;68883;45.932;6.060;2023-04-27T12:03:23;95447.59;;;27.08;21.38
79431;BME280;68883;45.932;6.060;2023-04-27T12:05:50;95448.25;;;27.16;21.69
79431;BME280;68883;45.932;6.060;2023-04-27T12:08:17;95443.44;;;27.33;21.21
79431;BME280;68883;45.932;6.060;2023-04-27T12:10:43;95443.41;;;27.27;21.18
79431;BME280;68883;45.932;6.060;2023-04-27T12:13:10;95441.81;;;27.32;21.57
79431;BME280;68883;45.932;6.060;2023-04-27T12:15:37;95442.69;;;27.39;21.35
79431;BME280;68883;45.932;6.060;2023-04-27T12:18:03;95450.78;;;27.31;21.07
79431;BME280;68883;45.932;6.060;2023-04-27T12:20:29;95444.22;;;27.27;21.10
79431;BME280;68883;45.932;6.060;2023-04-27T12:22:56;95456.03;;;27.18;20.87
79431;BME280;68883;45.932;6.060;2023-04-27T12:25:21;95446.44;;;27.17;21.14
79431;BME280;68883;45.932;6.060;2023-04-27T12:27:47;95446.25;;;27.18;21.32
79431;BME280;68883;45.932;6.060;2023-04-27T12:30:13;95445.25;;;27.26;21.49
79431;BME280;68883;45.932;6.060;2023-04-27T12:32:39;95445.72;;;27.01;20.84
79431;BME280;68883;45.932;6.060;2023-04-27T12:35:06;95446.63;;;26.80;21.55
79431;BME280;68883;45.932;6.060;2023-04-27T12:37:33;95443.13;;;26.73;21.22
79431;BME280;68883;45.932;6.060;2023-04-27T12:39:58;95440.84;;;26.48;21.56
79431;BME280;68883;45.932;6.060;2023-04-27T12:42:24;95424.38;;;26.03;21.33
79431;BME280;68883;45.932;6.060;2023-04-27T12:44:50;95439.38;;;26.17;20.75
79431;BME280;68883;45.932;6.060;2023-04-27T12:47:17;95443.47;;;26.20;20.60
79431;BME280;68883;45.932;6.060;2023-04-27T12:49:42;95445.28;;;25.98;20.61
79431;BME280;68883;45.932;6.060;2023-04-27T12:52:08;95426.31;;;25.72;21.21
79431;BME280;68883;45.932;6.060;2023-04-27T12:54:34;95434.38;;;25.86;21.12
79431;BME280;68883;45.932;6.060;2023-04-27T12:57:01;95441.72;;;25.69;20.93
79431;BME280;68883;45.932;6.060;2023-04-27T12:59:32;95443.22;;;25.56;20.86
79431;BME280;68883;45.932;6.060;2023-04-27T13:01:58;95436.00;;;25.50;21.01
79431;BME280;68883;45.932;6.060;2023-04-27T13:04:23;95444.69;;;25.59;20.92
79431;BME280;68883;45.932;6.060;2023-04-27T13:06:49;95447.16;;;25.46;21.34
79431;BME280;68883;45.932;6.060;2023-04-27T13:09:15;95445.91;;;25.42;21.02
79431;BME280;68883;45.932;6.060;2023-04-27T13:11:41;95443.19;;;25.35;20.65